Buoy 51659

sailwx.info

Track history (hours):
 
Tides and Currents Weather Stations Pressure Air Temp Water Temp Dewpoint Dewpoint Depression Visibility Wind Speed Wind Dir Waves Ship Positions

Drifting buoy 51659

Last reported at 2016-Dec-03 21:00 UTC. Time now 2016-Dec-04 01:54 UTC.
Position S 13°30' E 177°53'.

Water temperature 29.9 ° C

Date/timePositionNaut miles runAvg speedWind from/ knotsBaromVisibWave heightAir tempDewpointWater temp
2016-Dec-03 21:00S 13°30' E 177°53'1 1.2 29.9
2016-Dec-03 20:00S 13°30' E 177°55'1 1.3 29.7
2016-Dec-03 19:00S 13°31' E 177°53'1 0.4 29.7
2016-Dec-03 17:00S 13°31' E 177°54'0 0.0 29.8
2016-Dec-03 16:00S 13°31' E 177°54'2 1.1 29.8
2016-Dec-03 14:00S 13°33' E 177°53'0 0.0 29.8
2016-Dec-03 11:00S 13°33' E 177°53'1 1.2 29.9
2016-Dec-03 10:00S 13°33' E 177°54'1 0.6 29.9
2016-Dec-03 09:00S 13°33' E 177°55'1 0.8 29.9
2016-Dec-03 08:00S 13°34' E 177°54'1 0.6 29.9
2016-Dec-03 07:00S 13°33' E 177°54'1 0.7 29.9
2016-Dec-03 05:00S 13°34' E 177°53'2 0.2 30.1
2016-Dec-02 21:00S 13°36' E 177°54'0 0.0 29.7
2016-Dec-02 20:00S 13°36' E 177°54'1 0.6 29.6
2016-Dec-02 18:00S 13°37' E 177°54'1 1.3 29.6
2016-Dec-02 17:00S 13°38' E 177°53'2 0.3 29.6
2016-Dec-02 10:00S 13°41' E 177°53'0 0.0 29.9
2016-Dec-02 09:00S 13°41' E 177°53'1 0.6 29.9
2016-Dec-02 08:00S 13°41' E 177°53'1 0.4 29.9
2016-Dec-02 06:00S 13°42' E 177°53'1 0.8 30.1
2016-Dec-02 05:00S 13°43' E 177°52'2 0.3 30.1
2016-Dec-01 22:00S 13°44' E 177°52'1 0.6 29.8
2016-Dec-01 21:00S 13°44' E 177°53'1 0.8 29.6
2016-Dec-01 20:00S 13°45' E 177°52'0 0.0 29.5
2016-Dec-01 19:00S 13°45' E 177°52'0 0.0 29.5
2016-Dec-01 18:00S 13°45' E 177°52'1 0.6 29.5
2016-Dec-01 17:00S 13°44' E 177°52'1 0.8 29.5
2016-Dec-01 16:00S 13°45' E 177°52'0 0.0 29.5
2016-Dec-01 15:00S 13°45' E 177°52'1 1.3 29.5
2016-Dec-01 14:00S 13°46' E 177°52'1 0.2 29.5
2016-Dec-01 10:00S 13°47' E 177°52'2 0.3 29.7
2016-Dec-01 01:00S 13°46' E 177°49'1 0.3 29.8
2016-Nov-30 22:00S 13°47' E 177°50'1 0.3 29.6
2016-Nov-30 20:00S 13°47' E 177°49'1 0.3 29.5
2016-Nov-30 18:00S 13°47' E 177°49'1 0.4 29.4
2016-Nov-30 15:00S 13°47' E 177°47'2 1.9 29.4
2016-Nov-30 14:00S 13°49' E 177°47'0 0.0 29.5
2016-Nov-30 13:00S 13°49' E 177°47'0 0.0 29.5
2016-Nov-30 10:00S 13°49' E 177°47'1 0.6 29.5
2016-Nov-30 09:00S 13°49' E 177°47'1 0.6 29.5
2016-Nov-30 08:00S 13°50' E 177°47'2 2.1 29.5
2016-Nov-30 07:00S 13°49' E 177°45'2 0.3 29.5
2016-Nov-30 01:00S 13°47' E 177°44'1 0.4 29.5
2016-Nov-29 22:00S 13°47' E 177°43'1 0.6 29.5
2016-Nov-29 21:00S 13°47' E 177°42'1 0.8 29.5
2016-Nov-29 20:00S 13°46' E 177°41'1 0.8 29.5
2016-Nov-29 19:00S 13°46' E 177°42'0 0.0 29.5
2016-Nov-29 18:00S 13°46' E 177°42'1 0.3 29.5
2016-Nov-29 13:00S 13°44' E 177°41'1 0.3 29.5
2016-Nov-29 10:00S 13°45' E 177°42'2 2.1 29.6
2016-Nov-29 09:00S 13°46' E 177°40'1 1.3 29.6
2016-Nov-29 08:00S 13°45' E 177°41'0 0.0 29.6
2016-Nov-29 07:00S 13°45' E 177°41'2 0.7 29.6
2016-Nov-29 04:00S 13°44' E 177°43'0 0.0 29.7
2016-Nov-29 03:00S 13°44' E 177°43'1 0.4 29.9
2016-Nov-29 01:00S 13°44' E 177°42'2 0.4 29.9
2016-Nov-28 21:00S 13°43' E 177°43'1 0.6 29.5
2016-Nov-28 20:00S 13°44' E 177°43'0 0.0 29.5
2016-Nov-28 19:00S 13°44' E 177°43'1 0.1 29.5
2016-Nov-28 14:00S 13°44' E 177°43'0 0.0 29.5
2016-Nov-28 13:00S 13°44' E 177°43'1 0.3 29.5
2016-Nov-28 11:00S 13°43' E 177°43'0 0.0 29.5
2016-Nov-28 10:00S 13°43' E 177°43'0 0.0 29.6
2016-Nov-28 09:00S 13°43' E 177°43'0 0.0 29.6
2016-Nov-28 08:00S 13°43' E 177°43'1 0.2 29.6
2016-Nov-28 05:00S 13°43' E 177°43'1 0.2 29.7
2016-Nov-28 02:00S 13°43' E 177°43'0 0.0 29.8
2016-Nov-28 01:00S 13°43' E 177°43'1 0.3 29.7
2016-Nov-27 21:00S 13°43' E 177°44'1 0.8 29.6
2016-Nov-27 20:00S 13°42' E 177°44'1 1.3 29.4
2016-Nov-27 19:00S 13°43' E 177°44'0 0.0 29.4
2016-Nov-27 17:00S 13°43' E 177°44'0 0.0 29.4
2016-Nov-27 16:00S 13°43' E 177°44'1 0.7 29.4
2016-Nov-27 14:00S 13°42' E 177°45'1 0.8 29.5
2016-Nov-27 13:00S 13°43' E 177°44'1 0.3 29.5
2016-Nov-27 10:00S 13°42' E 177°45'1 0.6 29.6
2016-Nov-27 09:00S 13°43' E 177°45'1 0.6 29.6
2016-Nov-27 08:00S 13°43' E 177°44'1 0.6 29.7
2016-Nov-27 07:00S 13°43' E 177°45'1 0.7 29.8
2016-Nov-27 05:00S 13°43' E 177°46'0 0.0 30.0
2016-Nov-26 22:00S 13°43' E 177°46'0 0.0 29.6
2016-Nov-26 21:00S 13°43' E 177°46'1 0.6 29.5
2016-Nov-26 20:00S 13°44' E 177°46'1 0.8 29.4
2016-Nov-26 19:00S 13°44' E 177°47'0 0.0 29.4
2016-Nov-26 18:00S 13°44' E 177°47'1 0.3 29.4
2016-Nov-26 16:00S 13°44' E 177°46'0 0.0 29.4
2016-Nov-26 15:00S 13°44' E 177°46'0 0.0 29.4
2016-Nov-26 11:00S 13°44' E 177°46'0 0.0 29.5
2016-Nov-26 10:00S 13°44' E 177°46'1 0.8 29.6
2016-Nov-26 09:00S 13°45' E 177°47'0 0.0 29.6
2016-Nov-26 07:00S 13°45' E 177°47'1 0.1 29.8
2016-Nov-25 22:00S 13°45' E 177°47'1 0.3 29.7
2016-Nov-25 20:00S 13°45' E 177°48'1 0.3 29.4
2016-Nov-25 18:00S 13°46' E 177°48'1 0.3 29.3
2016-Nov-25 16:00S 13°46' E 177°48'0 0.0 29.4
2016-Nov-25 15:00S 13°46' E 177°48'1 1.2 29.4
2016-Nov-25 14:00S 13°46' E 177°47'0 0.0 29.4
2016-Nov-25 10:00S 13°46' E 177°47'0 0.0 29.5
2016-Nov-25 09:00S 13°46' E 177°47'1 0.6 29.5
2016-Nov-25 08:00S 13°47' E 177°47'2 0.2 29.6
2016-Nov-24 22:00S 13°46' E 177°45'1 0.6 29.3
2016-Nov-24 21:00S 13°47' E 177°45'1 1.3 29.3
2016-Nov-24 20:00S 13°47' E 177°44'0 0.0 29.2
2016-Nov-24 19:00S 13°47' E 177°44'0 0.0 29.2
2016-Nov-24 18:00S 13°47' E 177°44'1 0.6 29.2
2016-Nov-24 17:00S 13°48' E 177°44'0 0.0 29.2
2016-Nov-24 16:00S 13°48' E 177°44'3 1.3 29.2
2016-Nov-24 14:00S 13°46' E 177°42'1 0.1 29.3
2016-Nov-24 10:00S 13°46' E 177°42'1 0.6 29.4
2016-Nov-24 09:00S 13°46' E 177°42'1 0.6 29.4
2016-Nov-24 08:00S 13°46' E 177°43'1 0.1 29.4
2016-Nov-24 04:00S 13°46' E 177°42'3 0.4 29.8
2016-Nov-23 21:00S 13°44' E 177°44'   29.2
Track history (hours):
 
Tides and Currents Weather Stations Pressure Air Temp Water Temp Dewpoint Dewpoint Depression Visibility Wind Speed Wind Dir Waves Ship Positions

Drifting buoy 51659

Last reported at 2016-Dec-03 21:00 UTC. Time now 2016-Dec-04 01:54 UTC.
Position S 13°30' E 177°53'.

Water temperature 29.9 ° C

Date/timePositionNaut miles runAvg speedWind from/ knotsBaromVisibWave heightAir tempDewpointWater temp
2016-Dec-03 21:00S 13°30' E 177°53'1 1.2 29.9
2016-Dec-03 20:00S 13°30' E 177°55'1 1.3 29.7
2016-Dec-03 19:00S 13°31' E 177°53'1 0.4 29.7
2016-Dec-03 17:00S 13°31' E 177°54'0 0.0 29.8
2016-Dec-03 16:00S 13°31' E 177°54'2 1.1 29.8
2016-Dec-03 14:00S 13°33' E 177°53'0 0.0 29.8
2016-Dec-03 11:00S 13°33' E 177°53'1 1.2 29.9
2016-Dec-03 10:00S 13°33' E 177°54'1 0.6 29.9
2016-Dec-03 09:00S 13°33' E 177°55'1 0.8 29.9
2016-Dec-03 08:00S 13°34' E 177°54'1 0.6 29.9
2016-Dec-03 07:00S 13°33' E 177°54'1 0.7 29.9
2016-Dec-03 05:00S 13°34' E 177°53'2 0.2 30.1
2016-Dec-02 21:00S 13°36' E 177°54'0 0.0 29.7
2016-Dec-02 20:00S 13°36' E 177°54'1 0.6 29.6
2016-Dec-02 18:00S 13°37' E 177°54'1 1.3 29.6
2016-Dec-02 17:00S 13°38' E 177°53'2 0.3 29.6
2016-Dec-02 10:00S 13°41' E 177°53'0 0.0 29.9
2016-Dec-02 09:00S 13°41' E 177°53'1 0.6 29.9
2016-Dec-02 08:00S 13°41' E 177°53'1 0.4 29.9
2016-Dec-02 06:00S 13°42' E 177°53'1 0.8 30.1
2016-Dec-02 05:00S 13°43' E 177°52'2 0.3 30.1
2016-Dec-01 22:00S 13°44' E 177°52'1 0.6 29.8
2016-Dec-01 21:00S 13°44' E 177°53'1 0.8 29.6
2016-Dec-01 20:00S 13°45' E 177°52'0 0.0 29.5
2016-Dec-01 19:00S 13°45' E 177°52'0 0.0 29.5
2016-Dec-01 18:00S 13°45' E 177°52'1 0.6 29.5
2016-Dec-01 17:00S 13°44' E 177°52'1 0.8 29.5
2016-Dec-01 16:00S 13°45' E 177°52'0 0.0 29.5
2016-Dec-01 15:00S 13°45' E 177°52'1 1.3 29.5
2016-Dec-01 14:00S 13°46' E 177°52'1 0.2 29.5
2016-Dec-01 10:00S 13°47' E 177°52'2 0.3 29.7
2016-Dec-01 01:00S 13°46' E 177°49'1 0.3 29.8
2016-Nov-30 22:00S 13°47' E 177°50'1 0.3 29.6
2016-Nov-30 20:00S 13°47' E 177°49'1 0.3 29.5
2016-Nov-30 18:00S 13°47' E 177°49'1 0.4 29.4
2016-Nov-30 15:00S 13°47' E 177°47'2 1.9 29.4
2016-Nov-30 14:00S 13°49' E 177°47'0 0.0 29.5
2016-Nov-30 13:00S 13°49' E 177°47'0 0.0 29.5
2016-Nov-30 10:00S 13°49' E 177°47'1 0.6 29.5
2016-Nov-30 09:00S 13°49' E 177°47'1 0.6 29.5
2016-Nov-30 08:00S 13°50' E 177°47'2 2.1 29.5
2016-Nov-30 07:00S 13°49' E 177°45'2 0.3 29.5
2016-Nov-30 01:00S 13°47' E 177°44'1 0.4 29.5
2016-Nov-29 22:00S 13°47' E 177°43'1 0.6 29.5
2016-Nov-29 21:00S 13°47' E 177°42'1 0.8 29.5
2016-Nov-29 20:00S 13°46' E 177°41'1 0.8 29.5
2016-Nov-29 19:00S 13°46' E 177°42'0 0.0 29.5
2016-Nov-29 18:00S 13°46' E 177°42'1 0.3 29.5
2016-Nov-29 13:00S 13°44' E 177°41'1 0.3 29.5
2016-Nov-29 10:00S 13°45' E 177°42'2 2.1 29.6
2016-Nov-29 09:00S 13°46' E 177°40'1 1.3 29.6
2016-Nov-29 08:00S 13°45' E 177°41'0 0.0 29.6
2016-Nov-29 07:00S 13°45' E 177°41'2 0.7 29.6
2016-Nov-29 04:00S 13°44' E 177°43'0 0.0 29.7
2016-Nov-29 03:00S 13°44' E 177°43'1 0.4 29.9
2016-Nov-29 01:00S 13°44' E 177°42'2 0.4 29.9
2016-Nov-28 21:00S 13°43' E 177°43'1 0.6 29.5
2016-Nov-28 20:00S 13°44' E 177°43'0 0.0 29.5
2016-Nov-28 19:00S 13°44' E 177°43'1 0.1 29.5
2016-Nov-28 14:00S 13°44' E 177°43'0 0.0 29.5
2016-Nov-28 13:00S 13°44' E 177°43'1 0.3 29.5
2016-Nov-28 11:00S 13°43' E 177°43'0 0.0 29.5
2016-Nov-28 10:00S 13°43' E 177°43'0 0.0 29.6
2016-Nov-28 09:00S 13°43' E 177°43'0 0.0 29.6
2016-Nov-28 08:00S 13°43' E 177°43'1 0.2 29.6
2016-Nov-28 05:00S 13°43' E 177°43'1 0.2 29.7
2016-Nov-28 02:00S 13°43' E 177°43'0 0.0 29.8
2016-Nov-28 01:00S 13°43' E 177°43'1 0.3 29.7
2016-Nov-27 21:00S 13°43' E 177°44'1 0.8 29.6
2016-Nov-27 20:00S 13°42' E 177°44'1 1.3 29.4
2016-Nov-27 19:00S 13°43' E 177°44'0 0.0 29.4
2016-Nov-27 17:00S 13°43' E 177°44'0 0.0 29.4
2016-Nov-27 16:00S 13°43' E 177°44'1 0.7 29.4
2016-Nov-27 14:00S 13°42' E 177°45'1 0.8 29.5
2016-Nov-27 13:00S 13°43' E 177°44'1 0.3 29.5
2016-Nov-27 10:00S 13°42' E 177°45'1 0.6 29.6
2016-Nov-27 09:00S 13°43' E 177°45'1 0.6 29.6
2016-Nov-27 08:00S 13°43' E 177°44'1 0.6 29.7
2016-Nov-27 07:00S 13°43' E 177°45'1 0.7 29.8
2016-Nov-27 05:00S 13°43' E 177°46'0 0.0 30.0
2016-Nov-26 22:00S 13°43' E 177°46'0 0.0 29.6
2016-Nov-26 21:00S 13°43' E 177°46'1 0.6 29.5
2016-Nov-26 20:00S 13°44' E 177°46'1 0.8 29.4
2016-Nov-26 19:00S 13°44' E 177°47'0 0.0 29.4
2016-Nov-26 18:00S 13°44' E 177°47'1 0.3 29.4
2016-Nov-26 16:00S 13°44' E 177°46'0 0.0 29.4
2016-Nov-26 15:00S 13°44' E 177°46'0 0.0 29.4
2016-Nov-26 11:00S 13°44' E 177°46'0 0.0 29.5
2016-Nov-26 10:00S 13°44' E 177°46'1 0.8 29.6
2016-Nov-26 09:00S 13°45' E 177°47'0 0.0 29.6
2016-Nov-26 07:00S 13°45' E 177°47'1 0.1 29.8
2016-Nov-25 22:00S 13°45' E 177°47'1 0.3 29.7
2016-Nov-25 20:00S 13°45' E 177°48'1 0.3 29.4
2016-Nov-25 18:00S 13°46' E 177°48'1 0.3 29.3
2016-Nov-25 16:00S 13°46' E 177°48'0 0.0 29.4
2016-Nov-25 15:00S 13°46' E 177°48'1 1.2 29.4
2016-Nov-25 14:00S 13°46' E 177°47'0 0.0 29.4
2016-Nov-25 10:00S 13°46' E 177°47'0 0.0 29.5
2016-Nov-25 09:00S 13°46' E 177°47'1 0.6 29.5
2016-Nov-25 08:00S 13°47' E 177°47'2 0.2 29.6
2016-Nov-24 22:00S 13°46' E 177°45'1 0.6 29.3
2016-Nov-24 21:00S 13°47' E 177°45'1 1.3 29.3
2016-Nov-24 20:00S 13°47' E 177°44'0 0.0 29.2
2016-Nov-24 19:00S 13°47' E 177°44'0 0.0 29.2
2016-Nov-24 18:00S 13°47' E 177°44'1 0.6 29.2
2016-Nov-24 17:00S 13°48' E 177°44'0 0.0 29.2
2016-Nov-24 16:00S 13°48' E 177°44'3 1.3 29.2
2016-Nov-24 14:00S 13°46' E 177°42'1 0.1 29.3
2016-Nov-24 10:00S 13°46' E 177°42'1 0.6 29.4
2016-Nov-24 09:00S 13°46' E 177°42'1 0.6 29.4
2016-Nov-24 08:00S 13°46' E 177°43'1 0.1 29.4
2016-Nov-24 04:00S 13°46' E 177°42'3 0.4 29.8
2016-Nov-23 21:00S 13°44' E 177°44'   29.2

Dump ship's entire track history